sensor_id;sensor_type;location;lat;lon;timestamp;pressure;altitude;pressure_sealevel;temperature;humidity
11190;BME280;5651;50.926;4.718;2022-08-19T00:02:14;101252.56;;;17.91;80.06
11190;BME280;5651;50.926;4.718;2022-08-19T00:04:40;101256.19;;;17.87;80.73
11190;BME280;5651;50.926;4.718;2022-08-19T00:07:06;101257.13;;;17.84;82.33
11190;BME280;5651;50.926;4.718;2022-08-19T00:09:33;101259.97;;;17.78;82.74
11190;BME280;5651;50.926;4.718;2022-08-19T00:11:59;101258.31;;;17.74;83.80
11190;BME280;5651;50.926;4.718;2022-08-19T00:14:26;101272.44;;;17.71;82.60
11190;BME280;5651;50.926;4.718;2022-08-19T00:16:53;101272.59;;;17.67;82.62
11190;BME280;5651;50.926;4.718;2022-08-19T00:19:20;101277.94;;;17.64;81.51
11190;BME280;5651;50.926;4.718;2022-08-19T00:21:51;101276.25;;;17.61;81.20
11190;BME280;5651;50.926;4.718;2022-08-19T00:24:17;101282.41;;;17.60;80.78
11190;BME280;5651;50.926;4.718;2022-08-19T00:26:44;101283.38;;;17.57;82.60
11190;BME280;5651;50.926;4.718;2022-08-19T00:29:12;101280.78;;;17.56;81.98
11190;BME280;5651;50.926;4.718;2022-08-19T00:31:39;101276.50;;;17.52;82.02
11190;BME280;5651;50.926;4.718;2022-08-19T00:34:04;101281.81;;;17.50;81.00
11190;BME280;5651;50.926;4.718;2022-08-19T00:36:30;101283.56;;;17.50;83.26
11190;BME280;5651;50.926;4.718;2022-08-19T00:39:01;101284.59;;;17.44;81.01
11190;BME280;5651;50.926;4.718;2022-08-19T00:41:27;101283.78;;;17.42;81.00
11190;BME280;5651;50.926;4.718;2022-08-19T00:44:13;101278.56;;;17.40;80.31
11190;BME280;5651;50.926;4.718;2022-08-19T00:46:43;101273.28;;;17.40;82.29
11190;BME280;5651;50.926;4.718;2022-08-19T00:49:19;101265.44;;;17.37;81.63
11190;BME280;5651;50.926;4.718;2022-08-19T00:51:48;101273.41;;;17.34;80.73
11190;BME280;5651;50.926;4.718;2022-08-19T00:54:16;101270.84;;;17.33;80.43
11190;BME280;5651;50.926;4.718;2022-08-19T00:56:43;101283.97;;;17.34;80.73
11190;BME280;5651;50.926;4.718;2022-08-19T00:59:09;101284.91;;;17.32;80.03
11190;BME280;5651;50.926;4.718;2022-08-19T01:01:41;101277.94;;;17.29;76.63
11190;BME280;5651;50.926;4.718;2022-08-19T01:04:07;101283.09;;;17.34;79.45
11190;BME280;5651;50.926;4.718;2022-08-19T01:06:35;101290.16;;;17.33;79.36
11190;BME280;5651;50.926;4.718;2022-08-19T01:09:01;101283.94;;;17.36;79.65
11190;BME280;5651;50.926;4.718;2022-08-19T01:11:28;101270.72;;;17.37;80.71
11190;BME280;5651;50.926;4.718;2022-08-19T01:13:55;101270.59;;;17.42;83.85
11190;BME280;5651;50.926;4.718;2022-08-19T01:16:23;101276.72;;;17.42;81.32
11190;BME280;5651;50.926;4.718;2022-08-19T01:18:50;101272.22;;;17.48;84.46
11190;BME280;5651;50.926;4.718;2022-08-19T01:23:45;101277.31;;;17.54;82.73
11190;BME280;5651;50.926;4.718;2022-08-19T01:26:15;101267.59;;;17.56;81.97
11190;BME280;5651;50.926;4.718;2022-08-19T01:28:44;101269.28;;;17.58;83.04
11190;BME280;5651;50.926;4.718;2022-08-19T01:31:15;101264.03;;;17.57;82.08
11190;BME280;5651;50.926;4.718;2022-08-19T01:33:41;101267.63;;;17.54;80.76
11190;BME280;5651;50.926;4.718;2022-08-19T01:36:12;101257.75;;;17.63;91.51
11190;BME280;5651;50.926;4.718;2022-08-19T01:38:40;101257.88;;;17.58;84.82
11190;BME280;5651;50.926;4.718;2022-08-19T01:41:07;101255.34;;;17.55;82.97
11190;BME280;5651;50.926;4.718;2022-08-19T01:43:33;101253.56;;;17.55;81.36
11190;BME280;5651;50.926;4.718;2022-08-19T01:45:59;101256.19;;;17.55;82.43
11190;BME280;5651;50.926;4.718;2022-08-19T01:48:24;101269.41;;;17.54;82.87
11190;BME280;5651;50.926;4.718;2022-08-19T01:50:50;101272.16;;;17.49;81.30
11190;BME280;5651;50.926;4.718;2022-08-19T01:53:16;101266.00;;;17.49;81.71
11190;BME280;5651;50.926;4.718;2022-08-19T01:55:42;101273.13;;;17.47;83.18
11190;BME280;5651;50.926;4.718;2022-08-19T01:58:13;101273.25;;;17.42;81.47
11190;BME280;5651;50.926;4.718;2022-08-19T02:00:41;101272.34;;;17.41;83.60
11190;BME280;5651;50.926;4.718;2022-08-19T02:03:07;101289.94;;;17.41;83.78
11190;BME280;5651;50.926;4.718;2022-08-19T02:05:37;101287.47;;;17.35;84.16
11190;BME280;5651;50.926;4.718;2022-08-19T02:08:04;101282.28;;;17.32;83.76
11190;BME280;5651;50.926;4.718;2022-08-19T02:10:30;101281.44;;;17.30;83.96
11190;BME280;5651;50.926;4.718;2022-08-19T02:12:57;101285.13;;;17.24;82.60
11190;BME280;5651;50.926;4.718;2022-08-19T02:15:23;101284.22;;;17.23;83.55
11190;BME280;5651;50.926;4.718;2022-08-19T02:17:51;101272.00;;;17.21;83.48
11190;BME280;5651;50.926;4.718;2022-08-19T02:20:17;101273.00;;;17.17;82.97
11190;BME280;5651;50.926;4.718;2022-08-19T02:22:43;101272.13;;;17.16;85.39
11190;BME280;5651;50.926;4.718;2022-08-19T02:25:12;101275.75;;;17.12;83.92
11190;BME280;5651;50.926;4.718;2022-08-19T02:27:38;101278.50;;;17.07;85.12
11190;BME280;5651;50.926;4.718;2022-08-19T02:30:05;101280.28;;;17.07;85.00
11190;BME280;5651;50.926;4.718;2022-08-19T02:32:32;101272.50;;;17.02;83.30
11190;BME280;5651;50.926;4.718;2022-08-19T02:34:58;101285.69;;;17.01;83.74
11190;BME280;5651;50.926;4.718;2022-08-19T02:37:24;101288.34;;;16.99;83.31
11190;BME280;5651;50.926;4.718;2022-08-19T02:40:09;101287.56;;;16.95;83.23
11190;BME280;5651;50.926;4.718;2022-08-19T02:42:34;101289.34;;;16.93;83.64
11190;BME280;5651;50.926;4.718;2022-08-19T02:45:00;101285.88;;;16.93;85.36
11190;BME280;5651;50.926;4.718;2022-08-19T02:47:26;101282.47;;;16.88;84.01
11190;BME280;5651;50.926;4.718;2022-08-19T02:49:52;101286.06;;;16.84;84.21
11190;BME280;5651;50.926;4.718;2022-08-19T02:52:17;101288.75;;;16.80;83.46
11190;BME280;5651;50.926;4.718;2022-08-19T02:54:43;101287.94;;;16.78;85.25
11190;BME280;5651;50.926;4.718;2022-08-19T02:57:09;101279.25;;;16.73;83.14
11190;BME280;5651;50.926;4.718;2022-08-19T02:59:35;101280.19;;;16.72;83.59
11190;BME280;5651;50.926;4.718;2022-08-19T03:02:01;101282.84;;;16.71;84.41
11190;BME280;5651;50.926;4.718;2022-08-19T03:04:26;101283.00;;;16.64;83.22
11190;BME280;5651;50.926;4.718;2022-08-19T03:06:52;101279.53;;;16.62;84.02
11190;BME280;5651;50.926;4.718;2022-08-19T03:09:19;101284.03;;;16.57;83.90
11190;BME280;5651;50.926;4.718;2022-08-19T03:11:45;101285.91;;;16.52;82.92
11190;BME280;5651;50.926;4.718;2022-08-19T03:14:11;101287.69;;;16.50;80.22
11190;BME280;5651;50.926;4.718;2022-08-19T03:16:51;101278.03;;;16.51;81.62
11190;BME280;5651;50.926;4.718;2022-08-19T03:19:19;101275.44;;;16.49;83.17
11190;BME280;5651;50.926;4.718;2022-08-19T03:21:47;101278.13;;;16.47;82.82
11190;BME280;5651;50.926;4.718;2022-08-19T03:24:13;101286.91;;;16.46;83.01
11190;BME280;5651;50.926;4.718;2022-08-19T03:26:48;101280.88;;;16.41;82.41
11190;BME280;5651;50.926;4.718;2022-08-19T03:29:15;101278.31;;;16.38;82.69
11190;BME280;5651;50.926;4.718;2022-08-19T03:31:43;101273.13;;;16.35;81.31
11190;BME280;5651;50.926;4.718;2022-08-19T03:34:16;101273.09;;;16.37;82.68
11190;BME280;5651;50.926;4.718;2022-08-19T03:36:43;101269.63;;;16.35;82.11
11190;BME280;5651;50.926;4.718;2022-08-19T03:39:10;101271.31;;;16.37;85.20
11190;BME280;5651;50.926;4.718;2022-08-19T03:41:38;101270.50;;;16.35;84.19
11190;BME280;5651;50.926;4.718;2022-08-19T03:44:04;101270.50;;;16.35;83.84
11190;BME280;5651;50.926;4.718;2022-08-19T03:46:32;101267.00;;;16.35;83.63
11190;BME280;5651;50.926;4.718;2022-08-19T03:49:02;101262.72;;;16.30;82.50
11190;BME280;5651;50.926;4.718;2022-08-19T03:51:38;101271.50;;;16.28;80.85
11190;BME280;5651;50.926;4.718;2022-08-19T03:54:06;101274.13;;;16.28;80.73
11190;BME280;5651;50.926;4.718;2022-08-19T03:56:37;101271.56;;;16.26;85.51
11190;BME280;5651;50.926;4.718;2022-08-19T03:59:05;101275.03;;;16.28;84.58
11190;BME280;5651;50.926;4.718;2022-08-19T04:01:31;101276.78;;;16.28;84.84
11190;BME280;5651;50.926;4.718;2022-08-19T04:03:58;101275.97;;;16.24;84.44
11190;BME280;5651;50.926;4.718;2022-08-19T04:06:30;101274.31;;;16.20;84.48
11190;BME280;5651;50.926;4.718;2022-08-19T04:08:58;101275.25;;;16.18;85.70
11190;BME280;5651;50.926;4.718;2022-08-19T04:11:31;101288.44;;;16.14;84.61
11190;BME280;5651;50.926;4.718;2022-08-19T04:13:58;101285.00;;;16.12;85.18
11190;BME280;5651;50.926;4.718;2022-08-19T04:16:26;101291.25;;;16.07;84.36
11190;BME280;5651;50.926;4.718;2022-08-19T04:18:55;101288.63;;;16.07;85.27
11190;BME280;5651;50.926;4.718;2022-08-19T04:21:26;101279.13;;;15.99;84.61
11190;BME280;5651;50.926;4.718;2022-08-19T04:23:52;101285.28;;;15.98;87.13
11190;BME280;5651;50.926;4.718;2022-08-19T04:26:22;101281.00;;;15.93;87.33
11190;BME280;5651;50.926;4.718;2022-08-19T04:28:48;101281.09;;;15.88;86.63
11190;BME280;5651;50.926;4.718;2022-08-19T04:31:18;101282.91;;;15.84;85.82
11190;BME280;5651;50.926;4.718;2022-08-19T04:33:44;101282.97;;;15.80;86.14
11190;BME280;5651;50.926;4.718;2022-08-19T04:36:21;101287.41;;;15.78;85.67
11190;BME280;5651;50.926;4.718;2022-08-19T04:38:49;101290.94;;;15.75;85.88
11190;BME280;5651;50.926;4.718;2022-08-19T04:41:15;101291.00;;;15.72;85.97
11190;BME280;5651;50.926;4.718;2022-08-19T04:44:00;101291.06;;;15.71;85.92
11190;BME280;5651;50.926;4.718;2022-08-19T04:46:28;101304.28;;;15.66;83.68
11190;BME280;5651;50.926;4.718;2022-08-19T04:48:56;101295.47;;;15.68;84.53
11190;BME280;5651;50.926;4.718;2022-08-19T04:51:23;101300.72;;;15.68;85.54
11190;BME280;5651;50.926;4.718;2022-08-19T04:53:49;101304.28;;;15.66;84.23
11190;BME280;5651;50.926;4.718;2022-08-19T04:56:17;101300.75;;;15.67;84.74
11190;BME280;5651;50.926;4.718;2022-08-19T04:58:45;101302.47;;;15.68;84.97
11190;BME280;5651;50.926;4.718;2022-08-19T05:01:21;101308.56;;;15.70;84.45
11190;BME280;5651;50.926;4.718;2022-08-19T05:03:47;101312.94;;;15.71;85.47
11190;BME280;5651;50.926;4.718;2022-08-19T05:06:14;101312.88;;;15.74;84.85
11190;BME280;5651;50.926;4.718;2022-08-19T05:08:42;101316.38;;;15.75;84.05
11190;BME280;5651;50.926;4.718;2022-08-19T05:11:12;101321.53;;;15.79;83.78
11190;BME280;5651;50.926;4.718;2022-08-19T05:13:38;101311.88;;;15.81;82.57
11190;BME280;5651;50.926;4.718;2022-08-19T05:16:05;101314.25;;;15.97;86.52
11190;BME280;5651;50.926;4.718;2022-08-19T05:18:31;101317.69;;;15.99;85.46
11190;BME280;5651;50.926;4.718;2022-08-19T05:21:17;101316.66;;;16.08;85.24
11190;BME280;5651;50.926;4.718;2022-08-19T05:24:04;101317.28;;;16.19;81.26
11190;BME280;5651;50.926;4.718;2022-08-19T05:26:37;101321.44;;;16.31;81.49
11190;BME280;5651;50.926;4.718;2022-08-19T05:29:04;101321.03;;;16.50;91.08
11190;BME280;5651;50.926;4.718;2022-08-19T05:31:31;101315.69;;;16.53;89.68
11190;BME280;5651;50.926;4.718;2022-08-19T05:33:57;101319.94;;;16.60;87.45
11190;BME280;5651;50.926;4.718;2022-08-19T05:36:25;101314.38;;;16.74;94.73
11190;BME280;5651;50.926;4.718;2022-08-19T05:38:51;101315.84;;;16.86;90.69
11190;BME280;5651;50.926;4.718;2022-08-19T05:41:19;101309.66;;;16.88;88.20
11190;BME280;5651;50.926;4.718;2022-08-19T05:43:45;101307.56;;;17.03;89.25
11190;BME280;5651;50.926;4.718;2022-08-19T05:46:20;101320.41;;;17.17;88.66
11190;BME280;5651;50.926;4.718;2022-08-19T05:48:46;101313.09;;;17.28;90.69
11190;BME280;5651;50.926;4.718;2022-08-19T05:51:12;101319.94;;;17.35;87.93
11190;BME280;5651;50.926;4.718;2022-08-19T05:53:38;101318.22;;;17.34;92.37
11190;BME280;5651;50.926;4.718;2022-08-19T05:56:09;101313.25;;;17.56;91.80
11190;BME280;5651;50.926;4.718;2022-08-19T05:58:36;101316.09;;;17.49;96.43
11190;BME280;5651;50.926;4.718;2022-08-19T06:01:04;101317.81;;;17.50;98.51
11190;BME280;5651;50.926;4.718;2022-08-19T06:03:35;101321.16;;;17.56;96.74
11190;BME280;5651;50.926;4.718;2022-08-19T06:06:06;101322.94;;;17.56;98.16
11190;BME280;5651;50.926;4.718;2022-08-19T06:08:33;101322.84;;;17.59;94.32
11190;BME280;5651;50.926;4.718;2022-08-19T06:11:37;101321.13;;;17.58;99.37
11190;BME280;5651;50.926;4.718;2022-08-19T06:14:06;101325.81;;;17.80;96.41
11190;BME280;5651;50.926;4.718;2022-08-19T06:16:38;101321.41;;;17.80;96.38
11190;BME280;5651;50.926;4.718;2022-08-19T06:19:07;101326.47;;;17.88;97.36
11190;BME280;5651;50.926;4.718;2022-08-19T06:21:34;101320.28;;;17.89;100.00
11190;BME280;5651;50.926;4.718;2022-08-19T06:24:04;101326.06;;;18.05;99.35
11190;BME280;5651;50.926;4.718;2022-08-19T06:26:32;101322.47;;;18.06;100.00
11190;BME280;5651;50.926;4.718;2022-08-19T06:29:00;101317.84;;;18.16;99.43
11190;BME280;5651;50.926;4.718;2022-08-19T06:31:27;101316.75;;;18.23;100.00
11190;BME280;5651;50.926;4.718;2022-08-19T06:33:53;101316.56;;;18.29;99.29
11190;BME280;5651;50.926;4.718;2022-08-19T06:36:23;101316.19;;;18.42;94.95
11190;BME280;5651;50.926;4.718;2022-08-19T06:38:54;101316.69;;;18.55;93.92
11190;BME280;5651;50.926;4.718;2022-08-19T06:41:19;101313.72;;;18.65;93.09
11190;BME280;5651;50.926;4.718;2022-08-19T06:43:45;101313.53;;;18.72;95.68
11190;BME280;5651;50.926;4.718;2022-08-19T06:46:14;101324.66;;;18.81;97.62
11190;BME280;5651;50.926;4.718;2022-08-19T06:48:41;101325.41;;;18.85;100.00
11190;BME280;5651;50.926;4.718;2022-08-19T06:51:07;101332.41;;;18.88;98.77
11190;BME280;5651;50.926;4.718;2022-08-19T06:53:33;101327.53;;;19.04;96.55
11190;BME280;5651;50.926;4.718;2022-08-19T06:55:59;101325.00;;;19.27;93.12
11190;BME280;5651;50.926;4.718;2022-08-19T06:58:31;101332.56;;;19.38;92.56
11190;BME280;5651;50.926;4.718;2022-08-19T07:01:03;101318.00;;;19.52;94.19
11190;BME280;5651;50.926;4.718;2022-08-19T07:03:31;101323.41;;;19.48;94.37
11190;BME280;5651;50.926;4.718;2022-08-19T07:06:06;101329.00;;;19.39;96.67
11190;BME280;5651;50.926;4.718;2022-08-19T07:08:34;101339.59;;;19.64;92.54
11190;BME280;5651;50.926;4.718;2022-08-19T07:11:05;101333.47;;;19.62;91.10
11190;BME280;5651;50.926;4.718;2022-08-19T07:13:33;101328.41;;;19.82;89.22
11190;BME280;5651;50.926;4.718;2022-08-19T07:16:07;101331.78;;;19.87;88.67
11190;BME280;5651;50.926;4.718;2022-08-19T07:18:34;101332.75;;;19.84;89.43
11190;BME280;5651;50.926;4.718;2022-08-19T07:21:08;101332.19;;;19.74;92.58
11190;BME280;5651;50.926;4.718;2022-08-19T07:23:35;101329.22;;;19.58;95.36
11190;BME280;5651;50.926;4.718;2022-08-19T07:26:06;101336.19;;;19.61;94.95
11190;BME280;5651;50.926;4.718;2022-08-19T07:28:32;101331.13;;;19.80;94.42
11190;BME280;5651;50.926;4.718;2022-08-19T07:30:58;101335.19;;;19.90;91.32
11190;BME280;5651;50.926;4.718;2022-08-19T07:33:24;101330.47;;;20.24;88.90
11190;BME280;5651;50.926;4.718;2022-08-19T07:35:52;101332.47;;;20.17;92.60
11190;BME280;5651;50.926;4.718;2022-08-19T07:38:19;101337.03;;;20.36;90.53
11190;BME280;5651;50.926;4.718;2022-08-19T07:40:46;101330.66;;;20.41;92.11
11190;BME280;5651;50.926;4.718;2022-08-19T07:43:12;101339.09;;;20.51;91.42
11190;BME280;5651;50.926;4.718;2022-08-19T07:45:38;101330.81;;;20.61;89.90
11190;BME280;5651;50.926;4.718;2022-08-19T07:48:04;101331.13;;;20.77;92.07
11190;BME280;5651;50.926;4.718;2022-08-19T07:50:29;101328.16;;;20.84;91.54
11190;BME280;5651;50.926;4.718;2022-08-19T07:52:55;101321.50;;;20.96;89.60
11190;BME280;5651;50.926;4.718;2022-08-19T07:55:23;101322.88;;;21.07;89.96
11190;BME280;5651;50.926;4.718;2022-08-19T07:57:50;101321.34;;;21.21;89.63
11190;BME280;5651;50.926;4.718;2022-08-19T08:00:17;101327.06;;;21.33;88.53
11190;BME280;5651;50.926;4.718;2022-08-19T08:02:43;101327.72;;;21.38;89.03
11190;BME280;5651;50.926;4.718;2022-08-19T08:05:10;101330.03;;;21.46;86.55
11190;BME280;5651;50.926;4.718;2022-08-19T08:07:55;101337.69;;;21.33;86.40
11190;BME280;5651;50.926;4.718;2022-08-19T08:10:39;101343.75;;;21.35;87.64
11190;BME280;5651;50.926;4.718;2022-08-19T08:13:05;101337.63;;;21.55;85.82
11190;BME280;5651;50.926;4.718;2022-08-19T08:15:31;101344.03;;;21.49;88.59
11190;BME280;5651;50.926;4.718;2022-08-19T08:17:57;101345.00;;;21.48;88.66
11190;BME280;5651;50.926;4.718;2022-08-19T08:20:23;101355.34;;;21.55;88.45
11190;BME280;5651;50.926;4.718;2022-08-19T08:22:49;101359.16;;;21.90;85.04
11190;BME280;5651;50.926;4.718;2022-08-19T08:25:34;101356.09;;;21.79;86.65
11190;BME280;5651;50.926;4.718;2022-08-19T08:28:01;101361.31;;;22.01;85.12
11190;BME280;5651;50.926;4.718;2022-08-19T08:30:28;101355.44;;;22.13;84.96
11190;BME280;5651;50.926;4.718;2022-08-19T08:32:55;101360.28;;;22.24;83.17
11190;BME280;5651;50.926;4.718;2022-08-19T08:35:22;101362.94;;;22.24;84.55
11190;BME280;5651;50.926;4.718;2022-08-19T08:37:50;101356.97;;;22.19;84.28
11190;BME280;5651;50.926;4.718;2022-08-19T08:43:22;101361.88;;;22.47;84.78
11190;BME280;5651;50.926;4.718;2022-08-19T08:49:16;101357.03;;;22.94;81.53
11190;BME280;5651;50.926;4.718;2022-08-19T08:51:48;101368.56;;;22.75;81.83
11190;BME280;5651;50.926;4.718;2022-08-19T08:54:20;101359.25;;;23.03;80.43
11190;BME280;5651;50.926;4.718;2022-08-19T08:56:47;101360.28;;;23.01;81.62
11190;BME280;5651;50.926;4.718;2022-08-19T08:59:31;101364.66;;;23.21;80.60
11190;BME280;5651;50.926;4.718;2022-08-19T09:02:00;101362.94;;;23.20;81.26
11190;BME280;5651;50.926;4.718;2022-08-19T09:04:26;101369.50;;;23.48;81.55
11190;BME280;5651;50.926;4.718;2022-08-19T09:07:08;101365.66;;;23.36;81.21
11190;BME280;5651;50.926;4.718;2022-08-19T09:09:43;101368.25;;;23.55;79.83
11190;BME280;5651;50.926;4.718;2022-08-19T09:12:39;101364.91;;;23.51;79.79
11190;BME280;5651;50.926;4.718;2022-08-19T09:15:10;101366.84;;;23.65;80.91
11190;BME280;5651;50.926;4.718;2022-08-19T09:17:37;101363.88;;;23.36;80.17
11190;BME280;5651;50.926;4.718;2022-08-19T09:22:40;101369.97;;;23.56;79.03
11190;BME280;5651;50.926;4.718;2022-08-19T09:25:08;101371.38;;;23.81;79.27
11190;BME280;5651;50.926;4.718;2022-08-19T09:27:35;101369.75;;;23.78;79.20
11190;BME280;5651;50.926;4.718;2022-08-19T09:30:04;101378.34;;;23.83;79.62
11190;BME280;5651;50.926;4.718;2022-08-19T09:32:30;101370.91;;;23.90;80.17
11190;BME280;5651;50.926;4.718;2022-08-19T09:34:56;101372.22;;;24.16;78.13
11190;BME280;5651;50.926;4.718;2022-08-19T09:37:24;101372.41;;;23.96;79.68
11190;BME280;5651;50.926;4.718;2022-08-19T09:39:50;101370.28;;;24.02;77.86
11190;BME280;5651;50.926;4.718;2022-08-19T09:42:17;101376.97;;;23.94;79.64
11190;BME280;5651;50.926;4.718;2022-08-19T09:44:42;101369.59;;;23.99;79.24
11190;BME280;5651;50.926;4.718;2022-08-19T09:47:10;101367.16;;;24.28;77.84
11190;BME280;5651;50.926;4.718;2022-08-19T09:49:37;101379.25;;;24.17;77.91
11190;BME280;5651;50.926;4.718;2022-08-19T09:52:04;101369.72;;;24.29;77.46
11190;BME280;5651;50.926;4.718;2022-08-19T09:54:30;101380.47;;;24.28;78.60
11190;BME280;5651;50.926;4.718;2022-08-19T09:56:58;101376.38;;;24.54;78.19
11190;BME280;5651;50.926;4.718;2022-08-19T09:59:26;101378.53;;;24.47;77.13
11190;BME280;5651;50.926;4.718;2022-08-19T10:01:52;101374.84;;;24.50;76.53
11190;BME280;5651;50.926;4.718;2022-08-19T10:04:18;101380.47;;;24.28;77.16
11190;BME280;5651;50.926;4.718;2022-08-19T10:06:45;101376.03;;;24.60;77.68
11190;BME280;5651;50.926;4.718;2022-08-19T10:09:15;101382.78;;;24.67;77.34
11190;BME280;5651;50.926;4.718;2022-08-19T10:11:44;101375.34;;;24.57;77.63
11190;BME280;5651;50.926;4.718;2022-08-19T10:14:15;101382.78;;;24.99;76.05
11190;BME280;5651;50.926;4.718;2022-08-19T10:16:42;101372.50;;;24.77;75.42
11190;BME280;5651;50.926;4.718;2022-08-19T10:19:08;101369.28;;;24.55;76.15
11190;BME280;5651;50.926;4.718;2022-08-19T10:21:35;101378.06;;;24.89;75.65
11190;BME280;5651;50.926;4.718;2022-08-19T10:24:03;101369.72;;;24.79;75.05
11190;BME280;5651;50.926;4.718;2022-08-19T10:26:32;101372.22;;;24.82;74.82
11190;BME280;5651;50.926;4.718;2022-08-19T10:28:58;101376.63;;;24.49;76.21
11190;BME280;5651;50.926;4.718;2022-08-19T10:31:29;101372.25;;;24.48;76.63
11190;BME280;5651;50.926;4.718;2022-08-19T10:33:56;101367.31;;;24.74;76.26
11190;BME280;5651;50.926;4.718;2022-08-19T10:36:32;101367.25;;;24.92;75.06
11190;BME280;5651;50.926;4.718;2022-08-19T10:39:01;101366.94;;;25.12;73.85
11190;BME280;5651;50.926;4.718;2022-08-19T10:41:30;101357.28;;;25.26;74.26
11190;BME280;5651;50.926;4.718;2022-08-19T10:44:02;101355.56;;;25.41;72.70
11190;BME280;5651;50.926;4.718;2022-08-19T10:46:29;101355.38;;;25.28;73.89
11190;BME280;5651;50.926;4.718;2022-08-19T10:49:02;101356.03;;;25.47;71.97
11190;BME280;5651;50.926;4.718;2022-08-19T10:51:28;101352.31;;;25.50;71.95
11190;BME280;5651;50.926;4.718;2022-08-19T10:54:12;101356.25;;;25.59;71.79
11190;BME280;5651;50.926;4.718;2022-08-19T10:56:38;101354.41;;;25.45;72.13
11190;BME280;5651;50.926;4.718;2022-08-19T10:59:18;101350.34;;;25.38;72.08
11190;BME280;5651;50.926;4.718;2022-08-19T11:01:45;101356.53;;;25.54;72.17
11190;BME280;5651;50.926;4.718;2022-08-19T11:04:12;101352.69;;;25.44;69.90
11190;BME280;5651;50.926;4.718;2022-08-19T11:06:40;101351.78;;;25.74;70.38
11190;BME280;5651;50.926;4.718;2022-08-19T11:09:08;101349.59;;;25.66;71.33
11190;BME280;5651;50.926;4.718;2022-08-19T11:11:34;101353.31;;;25.63;71.01
11190;BME280;5651;50.926;4.718;2022-08-19T11:14:13;101350.34;;;25.38;70.36
11190;BME280;5651;50.926;4.718;2022-08-19T11:16:40;101353.38;;;25.62;69.45
11190;BME280;5651;50.926;4.718;2022-08-19T11:19:09;101356.69;;;25.51;70.98
11190;BME280;5651;50.926;4.718;2022-08-19T11:21:38;101361.75;;;25.25;68.91
11190;BME280;5651;50.926;4.718;2022-08-19T11:24:07;101357.34;;;25.71;70.02
11190;BME280;5651;50.926;4.718;2022-08-19T11:26:34;101363.59;;;25.55;69.85
11190;BME280;5651;50.926;4.718;2022-08-19T11:29:01;101359.97;;;25.56;70.70
11190;BME280;5651;50.926;4.718;2022-08-19T11:31:33;101355.75;;;25.52;70.90
11190;BME280;5651;50.926;4.718;2022-08-19T11:34:02;101353.41;;;25.76;70.17
11190;BME280;5651;50.926;4.718;2022-08-19T11:36:29;101351.41;;;25.66;71.11
11190;BME280;5651;50.926;4.718;2022-08-19T11:38:55;101349.00;;;25.61;70.28
11190;BME280;5651;50.926;4.718;2022-08-19T11:41:22;101346.84;;;25.82;70.38
11190;BME280;5651;50.926;4.718;2022-08-19T11:43:49;101355.13;;;25.92;69.67
11190;BME280;5651;50.926;4.718;2022-08-19T11:46:16;101357.06;;;25.75;69.90
11190;BME280;5651;50.926;4.718;2022-08-19T11:48:43;101361.31;;;25.63;70.21
11190;BME280;5651;50.926;4.718;2022-08-19T11:51:12;101357.34;;;25.71;70.09
11190;BME280;5651;50.926;4.718;2022-08-19T11:53:38;101362.72;;;25.55;70.62
11190;BME280;5651;50.926;4.718;2022-08-19T11:56:05;101357.94;;;25.29;71.58
11190;BME280;5651;50.926;4.718;2022-08-19T11:58:31;101359.94;;;25.26;71.70
11190;BME280;5651;50.926;4.718;2022-08-19T12:00:57;101363.13;;;25.33;72.58
11190;BME280;5651;50.926;4.718;2022-08-19T12:03:23;101360.47;;;25.16;73.62
11190;BME280;5651;50.926;4.718;2022-08-19T12:05:49;101355.91;;;25.19;74.96
11190;BME280;5651;50.926;4.718;2022-08-19T12:08:16;101358.22;;;25.25;73.46
11190;BME280;5651;50.926;4.718;2022-08-19T12:10:43;101366.03;;;25.44;72.36
11190;BME280;5651;50.926;4.718;2022-08-19T12:13:09;101367.09;;;25.25;73.42
11190;BME280;5651;50.926;4.718;2022-08-19T12:15:40;101364.19;;;25.14;74.26
11190;BME280;5651;50.926;4.718;2022-08-19T12:18:10;101363.41;;;25.12;76.63
11190;BME280;5651;50.926;4.718;2022-08-19T12:20:38;101369.63;;;25.12;76.33
11190;BME280;5651;50.926;4.718;2022-08-19T12:23:05;101367.16;;;25.24;75.13
11190;BME280;5651;50.926;4.718;2022-08-19T12:25:31;101362.25;;;25.32;75.26
11190;BME280;5651;50.926;4.718;2022-08-19T12:27:58;101368.19;;;25.21;75.57
11190;BME280;5651;50.926;4.718;2022-08-19T12:30:24;101361.19;;;25.35;74.99
11190;BME280;5651;50.926;4.718;2022-08-19T12:32:50;101364.44;;;25.56;72.73
11190;BME280;5651;50.926;4.718;2022-08-19T12:35:17;101357.91;;;25.76;74.36
11190;BME280;5651;50.926;4.718;2022-08-19T12:37:46;101359.78;;;25.59;72.73
11190;BME280;5651;50.926;4.718;2022-08-19T12:40:14;101357.06;;;25.75;73.00
11190;BME280;5651;50.926;4.718;2022-08-19T12:42:40;101353.63;;;25.88;70.91
11190;BME280;5651;50.926;4.718;2022-08-19T12:45:10;101352.41;;;25.93;71.33
11190;BME280;5651;50.926;4.718;2022-08-19T12:47:36;101353.88;;;25.69;71.07
11190;BME280;5651;50.926;4.718;2022-08-19T12:50:02;101353.72;;;25.86;72.12
11190;BME280;5651;50.926;4.718;2022-08-19T12:52:29;101346.22;;;25.48;72.32
11190;BME280;5651;50.926;4.718;2022-08-19T12:54:56;101342.84;;;26.04;72.22
11190;BME280;5651;50.926;4.718;2022-08-19T12:57:24;101336.97;;;26.13;72.53
11190;BME280;5651;50.926;4.718;2022-08-19T12:59:53;101333.47;;;26.54;68.78
11190;BME280;5651;50.926;4.718;2022-08-19T13:02:20;101326.31;;;26.55;68.53
11190;BME280;5651;50.926;4.718;2022-08-19T13:04:46;101331.13;;;27.04;70.20
11190;BME280;5651;50.926;4.718;2022-08-19T13:07:12;101319.78;;;26.59;66.19
11190;BME280;5651;50.926;4.718;2022-08-19T13:09:38;101317.88;;;27.69;65.56
11190;BME280;5651;50.926;4.718;2022-08-19T13:12:06;101322.78;;;27.88;65.52
11190;BME280;5651;50.926;4.718;2022-08-19T13:14:36;101308.56;;;28.13;65.46
11190;BME280;5651;50.926;4.718;2022-08-19T13:17:01;101309.06;;;28.32;59.62
11190;BME280;5651;50.926;4.718;2022-08-19T13:19:27;101309.06;;;29.04;61.29